Flight Track Log - Related Links

Times and Time Zones

All times are in EDT time to prevent confusion due to time zone crossing. See the GJS3707 flight status page for this flight to view local times or setup timezone preferences in your user account.

Time Position Orientation Groundspeed Altitude Reporting Facility
EDT Latitude Longitude Course Direction KTS MPH feet Rate Location/Type
Sun 10:55:40 AM 41.9167 -87.9333 261° West 191 220 2,900  Level Chicago TRACON
Sun 10:56:40 AM 41.8833 -88.0000 236° Southwest 241 277 5,000 2,102 Climbing Chicago TRACON
Sun 10:58:00 AM 41.9120 -88.5067 261° West  Level FlightAware Approximate
Sun 10:58:37 AM 41.8819 -88.2025 270° West 282 325 9,100  Level Chicago Center
Sun 10:59:00 AM 41.8941 -88.6596 261° West  Level FlightAware Approximate
Sun 10:59:39 AM 41.8814 -88.3128 270° West 295 339 11,400  Level Chicago Center
Sun 11:00:00 AM 41.8762 -88.8125 261° West  Level FlightAware Approximate
Sun 11:00:41 AM 41.8811 -88.4283 270° West 309 356 12,500  Level Chicago Center
Sun 11:01:00 AM 41.8583 -88.9686 261° West  Level FlightAware Approximate
Sun 11:01:43 AM 41.8703 -88.5617 264° West 357 411 13,700  Level Chicago Center
Sun 11:02:45 AM 41.8594 -88.7011 264° West 378 435 15,300 1,403 Climbing Chicago Center
Sun 11:03:47 AM 41.8475 -88.8731 265° West 389 448 16,600 823 Climbing Chicago Center
Sun 11:04:49 AM 41.8378 -89.0258 265° West 411 473 17,000 242 Climbing Chicago Center
Sun 11:05:51 AM 41.8297 -89.1761 266° West 408 470 17,100 290 Climbing Chicago Center
Sun 11:06:53 AM 41.8247 -89.3261 267° West 408 470 17,600 677 Climbing Chicago Center
Sun 11:07:55 AM 41.8197 -89.4761 267° West 407 468 18,500 1,016 Climbing Chicago Center
Sun 11:08:57 AM 41.8103 -89.6611 266° West 416 479 19,700 1,065 Climbing Chicago Center
Sun 11:09:59 AM 41.8058 -89.8175 268° West 424 488 20,700 919 Climbing Chicago Center
Sun 11:11:01 AM 41.8022 -89.9564 268° West 430 495 21,600 976 Climbing Chicago Center
Sun 11:12:02 AM 41.7967 -90.1358 268° West 433 498 22,700 683 Climbing Chicago Center
Sun 11:13:04 AM 41.7917 -90.3031 268° West 445 512 23,000 435 Climbing Chicago Center
Sun 11:14:06 AM 41.7778 -90.4708 264° West 455 524 23,600 919 Climbing Chicago Center
Sun 11:15:08 AM 41.7581 -90.6489 262° West 452 520 24,900 1,161 Climbing Chicago Center
Sun 11:16:10 AM 41.7400 -90.8117 262° West 446 513 26,000 968 Climbing Chicago Center
Sun 11:17:12 AM 41.7222 -90.9756 262° West 446 513 26,900 878 Climbing Chicago Center
Sun 11:18:13 AM 41.7000 -91.1722 261° West 448 516 27,800 780 Climbing Chicago Center
Sun 11:19:15 AM 41.6831 -91.3397 262° West 456 525 28,500 677 Climbing Chicago Center
Sun 11:20:17 AM 41.6803 -91.5119 269° West 463 533 29,200 677 Climbing Chicago Center
Sun 11:21:19 AM 41.6750 -91.6842 268° West 464 534 29,900 683 Climbing Chicago Center
Sun 11:22:20 AM 41.6700 -91.8581 268° West 468 539 30,600 683 Climbing Chicago Center
Sun 11:23:22 AM 41.6644 -92.0317 268° West 470 541 31,300 774 Climbing Chicago Center
Sun 11:24:24 AM 41.6569 -92.2442 267° West 479 551 32,200 774 Climbing Chicago Center
Sun 11:25:26 AM 41.6511 -92.4178 267° West 472 543 32,900 726 Climbing Chicago Center
Sun 11:26:28 AM 41.6447 -92.5936 267° West 475 547 33,700 780 Climbing Chicago Center
Sun 11:27:29 AM 41.6381 -92.7586 267° West 470 541 34,500 732 Climbing Chicago Center
Sun 11:28:31 AM 41.6306 -92.9650 267° West 469 540 35,200 629 Climbing Chicago Center
Sun 11:29:33 AM 41.6236 -93.1367 267° West 467 537 35,800 387 Climbing Chicago Center
Sun 11:30:35 AM 41.6153 -93.3092 266° West 470 541 36,000 97 Climbing Chicago Center
Sun 11:31:37 AM 41.6083 -93.4853 267° West 477 549 36,000  Level Chicago Center
Sun 11:32:38 AM 41.5994 -93.6628 266° West 482 555 36,000  Level Chicago Center
Sun 11:33:08 AM 41.5975 -93.7611 269° West 473 544 36,000  Level Minneapolis Center
Sun 11:34:10 AM 41.5889 -93.9378 266° West 480 552 36,000  Level Minneapolis Center
Sun 11:35:12 AM 41.5806 -94.1156 266° West 484 557 36,000  Level Minneapolis Center
Sun 11:36:26 AM 41.5669 -94.3092 265° West 490 564 36,000  Level Minneapolis Center
Sun 11:37:29 AM 41.5572 -94.5231 267° West 483 556 36,000  Level Minneapolis Center
Sun 11:38:31 AM 41.5467 -94.7011 266° West 482 555 36,000  Level Minneapolis Center
Sun 11:39:33 AM 41.5350 -94.9147 266° West 481 554 36,000 48 Level Minneapolis Center
Sun 11:40:35 AM 41.5258 -95.0894 266° West 475 547 36,100  Climbing Minneapolis Center
Sun 11:41:37 AM 41.5150 -95.2669 265° West 479 551 36,000 -48 Descending Minneapolis Center
Sun 11:42:39 AM 41.5039 -95.4425 265° West 476 548 36,000  Level Minneapolis Center
Sun 11:43:54 AM 41.4908 -95.6397 265° West 477 549 36,000  Level Minneapolis Center
Sun 11:44:56 AM 41.4786 -95.8361 265° West 478 550 36,000  Level Minneapolis Center
Sun 11:45:58 AM 41.4639 -96.0472 265° West 476 548 36,000  Level Minneapolis Center
Sun 11:47:00 AM 41.4506 -96.2244 264° West 479 551 36,000  Level Minneapolis Center
Sun 11:48:02 AM 41.4417 -96.3831 266° West 481 554 36,000  Level Minneapolis Center
Sun 11:49:04 AM 41.4258 -96.5967 264° West 485 558 36,000  Level Minneapolis Center
Sun 11:50:18 AM 41.4125 -96.7733 264° West 482 555 36,000  Level Minneapolis Center
Sun 11:51:20 AM 41.3958 -96.9867 264° West 483 556 36,000  Level Minneapolis Center
Sun 11:52:35 AM 41.3803 -97.1981 264° West 480 552 36,000  Level Minneapolis Center
Sun 11:53:37 AM 41.3669 -97.3731 264° West 477 549 36,000 48 Level Minneapolis Center
Sun 11:54:39 AM 41.3528 -97.5494 264° West 479 551 36,100 387 Climbing Minneapolis Center
Sun 11:55:41 AM 41.3356 -97.7622 264° West 482 555 36,800 581 Climbing Minneapolis Center
Sun 11:56:43 AM 41.3211 -97.9242 263° West 480 552 37,300 581 Climbing Minneapolis Center
Sun 11:57:45 AM 41.2764 -98.0906 250° West 475 547 38,000 339 Climbing Minneapolis Center
Sun 11:58:47 AM 41.2414 -98.2225 251° West 474 545 38,000  Level Minneapolis Center
Sun 11:59:49 AM 41.2206 -98.4636 264° West 473 544 38,000  Level Minneapolis Center
Sun 12:00:51 PM 41.2136 -98.5803 266° West 472 543 38,000  Level Minneapolis Center
Sun 12:01:53 PM 41.1994 -98.7894 265° West 473 544 38,000  Level Minneapolis Center
Sun 12:02:55 PM 41.1842 -98.9989 265° West 474 545 38,000  Level Minneapolis Center
Sun 12:03:57 PM 41.1722 -99.1786 265° West 470 541 38,000  Level Denver Center
Sun 12:04:59 PM 41.1622 -99.3139 264° West 466 536 38,000  Level Denver Center
Sun 12:06:01 PM 41.1464 -99.5258 264° West 465 535 38,000  Level Denver Center
Sun 12:07:04 PM 41.1339 -99.6878 264° West 464 534 38,000  Level Denver Center
Sun 12:08:06 PM 41.1200 -99.8775 265° West 463 533 38,000  Level Denver Center
Sun 12:09:08 PM 41.1083 -100.0394 265° West 462 532 38,000  Level Denver Center
Sun 12:10:10 PM 41.0928 -100.2272 264° West 462 532 38,000  Level Denver Center
Sun 12:11:12 PM 41.0803 -100.3881 264° West 460 529 38,000  Level Denver Center
Sun 12:12:14 PM 41.0650 -100.5753 264° West 461 531 38,000  Level Denver Center
Sun 12:13:16 PM 41.0536 -100.7353 265° West 461 531 38,000  Level Denver Center
Sun 12:14:43 PM 41.0661 -100.9464 275° West 452 520 38,000  Level Denver Center
Sun 12:15:45 PM 41.0822 -101.1594 276° West 458 527 38,000  Level Denver Center
Sun 12:16:46 PM 41.0922 -101.2914 276° West 455 524 38,000  Level Denver Center
Sun 12:17:48 PM 41.1056 -101.4756 276° West 452 520 38,000  Level Denver Center
Sun 12:18:51 PM 41.1203 -101.6861 275° West 451 519 38,000  Level Denver Center
Sun 12:19:53 PM 41.1308 -101.8442 275° West 451 519 38,000  Level Denver Center
Sun 12:20:55 PM 41.1433 -102.0008 276° West 447 514 38,000  Level Denver Center
Sun 12:21:57 PM 41.1531 -102.1839 274° West 447 514 38,000  Level Denver Center
Sun 12:22:59 PM 41.1656 -102.3400 276° West 446 513 38,000  Level Denver Center
Sun 12:24:01 PM 41.1767 -102.5222 275° West 445 512 38,000  Level Denver Center
Sun 12:25:04 PM 41.1875 -102.6786 275° West 446 513 38,000  Level Denver Center
Sun 12:26:05 PM 41.1981 -102.8611 274° West 446 513 38,000  Level Denver Center
Sun 12:27:08 PM 41.2067 -103.0194 274° West 444 511 38,000  Level Denver Center
Sun 12:28:10 PM 41.2172 -103.2003 274° West 440 506 38,000  Level Denver Center
Sun 12:29:12 PM 41.2258 -103.3544 274° West 438 504 38,000  Level Denver Center
Sun 12:30:14 PM 41.2372 -103.5336 275° West 436 502 38,000  Level Denver Center
Sun 12:31:28 PM 41.2453 -103.6867 274° West 434 499 38,000  Level Denver Center
Sun 12:32:30 PM 41.2569 -103.8914 274° West 435 501 38,000  Level Denver Center
Sun 12:34:17 PM 41.2686 -104.1736 273° West 433 498 38,000  Level Salt Lake Center
Sun 12:35:19 PM 41.2764 -104.3278 274° West 435 501 38,000  Level Salt Lake Center
Sun 12:36:21 PM 41.2847 -104.5067 274° West 434 499 38,000  Level Salt Lake Center
Sun 12:37:23 PM 41.2922 -104.6611 274° West 435 501 38,000  Level Salt Lake Center
Sun 12:38:25 PM 41.3000 -104.8217 274° West 434 499 38,000  Level Salt Lake Center
Sun 12:39:27 PM 41.3078 -105.0000 273° West 434 499 38,000  Level Salt Lake Center
Sun 12:39:57 PM 41.3103 -105.0447 274° West 434 499 38,000  Level Denver Center
Sun 12:40:59 PM 41.3194 -105.2500 273° West 436 502 38,000  Level Denver Center
Sun 12:42:01 PM 41.3256 -105.4042 273° West 435 501 38,000  Level Denver Center
Sun 12:43:03 PM 41.3319 -105.5842 273° West 436 502 38,000  Level Denver Center
Sun 12:44:05 PM 41.3383 -105.7364 273° West 433 498 38,000  Level Denver Center
Sun 12:45:20 PM 41.3572 -105.9386 277° West 431 496 38,000  Level Denver Center
Sun 12:46:22 PM 41.3708 -106.0900 277° West 432 497 38,000  Level Denver Center
Sun 12:47:24 PM 41.3853 -106.2647 276° West 426 490 38,000  Level Denver Center
Sun 12:48:26 PM 41.3989 -106.4144 277° West 424 488 38,000  Level Denver Center
Sun 12:49:28 PM 41.4131 -106.5947 276° West 429 494 38,000  Level Denver Center
Sun 12:50:30 PM 41.4253 -106.7436 276° West 424 488 38,000  Level Denver Center
Sun 12:51:32 PM 41.4375 -106.8936 276° West 425 489 38,000  Level Denver Center
Sun 12:52:34 PM 41.4519 -107.0681 276° West 426 490 38,000  Level Denver Center
Sun 12:53:36 PM 41.4633 -107.2181 276° West 426 490 38,000  Level Denver Center
Sun 12:54:50 PM 41.4792 -107.3922 277° West 424 488 38,000  Level Denver Center
Sun 12:55:53 PM 41.4928 -107.5925 275° West 426 490 38,000  Level Denver Center
Sun 12:56:55 PM 41.5050 -107.7439 276° West 428 493 38,000  Level Denver Center
Sun 12:58:10 PM 41.5189 -107.9425 275° West 423 487 38,000  Level Denver Center
Sun 12:59:12 PM 41.5297 -108.0922 276° West 424 488 38,000  Level Denver Center
Sun 01:00:08 PM 41.5403 -108.2425 275° West 422 486 38,000  Level Salt Lake Center
Sun 01:01:10 PM 41.5528 -108.4164 276° West 423 487 38,000  Level Salt Lake Center
Sun 01:02:14 PM 41.5622 -108.5650 275° West 422 486 38,000  Level Salt Lake Center
Sun 01:03:14 PM 41.5742 -108.7378 275° West 423 487 38,000  Level Salt Lake Center
Sun 01:04:16 PM 41.5842 -108.8842 275° West 419 482 38,000  Level Salt Lake Center
Sun 01:05:18 PM 41.6072 -109.0544 280° West 426 490 38,000  Level Salt Lake Center
Sun 01:06:20 PM 41.6578 -109.1906 296° West 432 497 38,000  Level Salt Lake Center
Sun 01:07:22 PM 41.7164 -109.3500 296° West 432 497 38,000  Level Salt Lake Center
Sun 01:08:24 PM 41.7661 -109.4869 296° West 430 495 38,000  Level Salt Lake Center
Sun 01:09:26 PM 41.8239 -109.6458 296° West 427 491 38,000  Level Salt Lake Center
Sun 01:10:28 PM 41.8739 -109.7828 296° West 429 494 38,000  Level Salt Lake Center
Sun 01:11:30 PM 41.9319 -109.9414 296° West 426 490 38,000  Level Salt Lake Center
Sun 01:12:32 PM 41.9808 -110.0789 296° West 426 490 38,000  Level Salt Lake Center
Sun 01:13:34 PM 42.0378 -110.2386 296° West 425 489 38,000  Level Salt Lake Center
Sun 01:14:36 PM 42.0881 -110.3756 296° West 425 489 38,000  Level Salt Lake Center
Sun 01:15:38 PM 42.1442 -110.5336 296° West 422 486 38,000  Level Salt Lake Center
Sun 01:16:42 PM 42.1936 -110.6714 296° West 425 489 38,000  Level Salt Lake Center
Sun 01:17:43 PM 42.2492 -110.8297 295° West 421 484 38,000  Level Salt Lake Center
Sun 01:18:45 PM 42.2936 -110.9575 295° West 424 488 38,000  Level Salt Lake Center
Sun 01:19:47 PM 42.3533 -111.1283 295° West 422 486 38,000  Level Salt Lake Center
Sun 01:20:49 PM 42.4028 -111.2706 295° West 420 483 38,000  Level Salt Lake Center
Sun 01:21:51 PM 42.4528 -111.4147 295° West 424 488 38,000  Level Salt Lake Center
Sun 01:22:53 PM 42.5014 -111.5572 295° West 421 484 38,000  Level Salt Lake Center
Sun 01:23:55 PM 42.5497 -111.6997 295° West 419 482 38,000  Level Salt Lake Center
Sun 01:24:57 PM 42.6097 -111.8722 295° West 423 487 38,000  Level Salt Lake Center
Sun 01:25:59 PM 42.6578 -112.0142 295° West 417 480 38,000  Level Salt Lake Center
Sun 01:27:01 PM 42.7075 -112.1614 295° West 421 484 38,000  Level Salt Lake Center
Sun 01:28:03 PM 42.7547 -112.3022 295° West 424 488 38,000  Level Salt Lake Center
Sun 01:29:05 PM 42.8086 -112.4647 294° West 423 487 38,000  Level Salt Lake Center
Sun 01:30:07 PM 42.8550 -112.6050 294° West 424 488 38,000  Level Salt Lake Center
Sun 01:31:09 PM 42.8956 -112.7708 289° West 414 476 38,000  Level Salt Lake Center
Sun 01:32:11 PM 42.9261 -112.9169 286° West 417 480 38,000  Level Salt Lake Center
Sun 01:33:13 PM 42.9603 -113.0856 286° West 414 476 38,000  Level Salt Lake Center
Sun 01:34:15 PM 42.9900 -113.2275 286° West 409 471 38,000  Level Salt Lake Center
Sun 01:35:17 PM 43.0236 -113.3933 286° West 405 466 38,000  Level Salt Lake Center
Sun 01:36:19 PM 43.0528 -113.5369 286° West 408 470 38,000  Level Salt Lake Center
Sun 01:37:21 PM 43.0806 -113.6758 285° West 398 458 38,000  Level Salt Lake Center
Sun 01:38:23 PM 43.1136 -113.8397 285° West 399 459 38,000  Level Salt Lake Center
Sun 01:39:25 PM 43.1403 -113.9892 284° West 404 465 38,000 -339 Level Salt Lake Center
Sun 01:40:27 PM 43.1689 -114.1342 285° West 399 459 37,300 -1,597 Descending Salt Lake Center
Sun 01:41:29 PM 43.2033 -114.2997 286° West 413 475 34,700 -2,400 Descending Salt Lake Center
Sun 01:42:32 PM 43.2314 -114.4403 285° West 399 459 32,300 -2,496 Descending Salt Lake Center
Sun 01:43:34 PM 43.2619 -114.6053 284° West 400 460 29,500 -2,516 Descending Salt Lake Center
Sun 01:44:36 PM 43.2881 -114.7447 284° West 395 455 27,100 -2,516 Descending Salt Lake Center
Sun 01:45:38 PM 43.3189 -114.9039 285° West 386 444 24,300 -2,516 Descending Salt Lake Center
Sun 01:46:40 PM 43.3439 -115.0378 284° West 379 436 21,900 -2,274 Descending Salt Lake Center
Sun 01:47:42 PM 43.3717 -115.1894 284° West 369 425 19,600 -2,032 Descending Salt Lake Center
Sun 01:48:44 PM 43.3972 -115.3211 285° West 348 400 17,700 -1,839 Descending Salt Lake Center
Sun 01:49:46 PM 43.4175 -115.4375 284° West 330 380 15,800 -1,935 Descending Salt Lake Center
Sun 01:50:48 PM 43.4389 -115.5558 284° West 312 359 13,700 -1,790 Descending Salt Lake Center
Sun 01:51:50 PM 43.4592 -115.6675 284° West 295 339 12,100 -1,597 Descending Salt Lake Center
Sun 01:52:52 PM 43.4714 -115.7750 279° West 276 318 10,400 -1,500 Descending Salt Lake Center
Sun 01:53:54 PM 43.4772 -115.8803 274° West 267 307 9,000 -1,452 Descending Salt Lake Center
Sun 01:54:56 PM 43.4842 -115.9808 275° West 256 295 7,400 -1,548 Descending Salt Lake Center
Sun 01:55:58 PM 43.5114 -116.0650 294° West 232 267 5,800 -1,548 Descending Salt Lake Center

Login

Don't have an account? Register now (free) for customized features, flight alerts, and more!